Terminal Aerodrome Forecast
Issued by NWS

Home | Current Version | Previous Version | Text Only | Print | Product List | Glossary On
Versions: 1 2 3 4 5 6 7 8 9 10 11 12 13 14 15 16 17 18 19
000
FTUS41 KPBZ 301700
TAFLBE
TAF
KLBE 301720Z 3018/3118 20010G16KT P6SM SCT080
     FM310000 19005KT P6SM BKN250
     FM311000 22005KT P6SM -SHRA VCTS OVC030CB
     FM311300 22005KT 2SM SHRA OVC012
     FM311600 22005KT 3SM SHRA OVC010=

USA.gov is the U.S. government's official web portal to all federal, state and local government web resources and services.